Time;durP1;ratioP1;P1;durP2;ratioP2;P2;SDS_P1;SDS_P2;PMS_P1;PMS_P2;Temp;Humidity;BMP_temperature;BMP_pressure;BME280_temperature;BME280_humidity;BME280_pressure;Samples;Min_cycle;Max_cycle;Signal;HPM_P1;HPM_P2
2023/01/06 00:01:08;;;;;;;29.63;10.63;;;9.80;99.90;;;;;;5141883;27;20031;-58
2023/01/06 00:03:34;;;;;;;30.08;10.68;;;10.30;99.90;;;;;;5141431;27;20050;-58
2023/01/06 00:06:01;;;;;;;34.20;11.10;;;10.20;99.90;;;;;;5141361;27;20504;-58
2023/01/06 00:08:27;;;;;;;33.30;9.80;;;9.70;99.90;;;;;;5141041;27;20042;-58
2023/01/06 00:10:53;;;;;;;35.58;10.10;;;10.00;99.90;;;;;;5140858;27;20573;-59
2023/01/06 00:13:19;;;;;;;30.05;9.98;;;9.90;99.90;;;;;;5141524;27;20126;-58
2023/01/06 00:15:45;;;;;;;37.70;10.35;;;9.90;99.90;;;;;;5131409;27;20027;-58
2023/01/06 00:18:10;;;;;;;36.72;10.20;;;10.30;99.90;;;;;;5158809;27;20047;-57
2023/01/06 00:20:36;;;;;;;33.00;9.93;;;10.00;99.90;;;;;;5142097;27;20095;-57
2023/01/06 00:23:02;;;;;;;28.00;9.25;;;9.70;99.90;;;;;;5146633;27;20027;-58
2023/01/06 00:25:28;;;;;;;32.88;9.63;;;10.30;99.90;;;;;;5159883;27;20046;-57
2023/01/06 00:27:54;;;;;;;27.58;9.32;;;9.80;99.90;;;;;;5161401;27;20190;-58
2023/01/06 00:30:20;;;;;;;27.23;8.65;;;10.20;99.90;;;;;;5160549;27;20608;-57
2023/01/06 00:32:46;;;;;;;32.58;8.90;;;9.80;99.90;;;;;;5142400;27;20438;-57
2023/01/06 00:35:12;;;;;;;26.50;8.73;;;9.90;99.90;;;;;;5161945;27;20078;-58
2023/01/06 00:37:37;;;;;;;28.48;8.95;;;10.30;99.90;;;;;;5161195;27;20513;-57
2023/01/06 00:40:04;;;;;;;28.08;7.47;;;10.20;99.90;;;;;;5161436;27;20464;-58
2023/01/06 00:42:29;;;;;;;26.90;7.68;;;10.00;99.90;;;;;;5161412;27;20039;-58
2023/01/06 00:44:55;;;;;;;25.73;7.43;;;10.20;99.90;;;;;;5142258;27;20126;-57
2023/01/06 00:47:21;;;;;;;25.17;7.13;;;10.10;99.90;;;;;;5161679;27;20039;-58
2023/01/06 00:49:47;;;;;;;27.38;7.18;;;10.00;99.90;;;;;;5153798;27;20068;-58
2023/01/06 00:52:13;;;;;;;22.95;6.00;;;10.40;99.90;;;;;;5150327;27;20521;-58
2023/01/06 00:54:39;;;;;;;18.90;5.68;;;10.10;99.90;;;;;;5149927;27;20092;-57
2023/01/06 00:57:06;;;;;;;22.63;5.85;;;10.10;99.90;;;;;;5161272;27;20170;-58
2023/01/06 00:59:32;;;;;;;25.10;5.78;;;10.10;99.90;;;;;;5160704;27;20039;-57
2023/01/06 01:01:58;;;;;;;16.58;5.05;;;10.10;99.90;;;;;;5130266;27;20063;-58
2023/01/06 01:04:25;;;;;;;20.08;5.28;;;10.30;99.90;;;;;;5143515;27;20043;-58
2023/01/06 01:06:52;;;;;;;16.75;4.97;;;10.30;99.90;;;;;;5148332;27;20063;-58
2023/01/06 01:09:24;;;;;;;22.08;5.78;;;10.10;99.90;;;;;;5157971;27;20045;-57
2023/01/06 01:12:09;;;;;;;16.85;5.15;;;10.20;99.90;;;;;;5160336;27;20090;-58
2023/01/06 01:14:40;;;;;;;19.90;5.65;;;10.40;99.90;;;;;;5160681;27;20070;-58
2023/01/06 01:17:06;;;;;;;18.05;5.63;;;10.10;99.90;;;;;;5161122;27;20047;-57
2023/01/06 01:19:33;;;;;;;15.50;4.85;;;10.20;99.90;;;;;;5159708;27;20035;-58
2023/01/06 01:21:58;;;;;;;19.60;5.22;;;10.10;99.90;;;;;;5160767;27;20042;-57
2023/01/06 01:24:24;;;;;;;19.45;4.88;;;10.30;99.90;;;;;;5160111;27;20139;-58
2023/01/06 01:26:50;;;;;;;18.38;4.95;;;10.10;99.90;;;;;;5160460;27;20046;-57
2023/01/06 01:29:17;;;;;;;13.35;4.18;;;10.30;99.90;;;;;;5160235;27;20053;-57
2023/01/06 01:31:43;;;;;;;16.52;3.83;;;10.30;99.90;;;;;;5160435;27;20232;-58
2023/01/06 01:34:10;;;;;;;14.93;3.70;;;10.10;99.90;;;;;;5152804;27;20035;-58
2023/01/06 01:36:36;;;;;;;16.02;3.80;;;10.30;99.90;;;;;;5144619;27;20126;-58
2023/01/06 01:39:02;;;;;;;16.00;3.70;;;10.00;99.90;;;;;;5139892;27;20047;-58
2023/01/06 01:41:29;;;;;;;16.77;4.45;;;10.10;99.90;;;;;;5138610;27;20068;-58
2023/01/06 01:44:19;;;;;;;15.27;3.47;;;10.10;99.90;;;;;;5124663;27;20077;-58
2023/01/06 01:46:45;;;;;;;17.02;4.65;;;10.20;99.90;;;;;;5148257;27;20045;-57
2023/01/06 01:49:25;;;;;;;14.50;3.45;;;10.00;99.90;;;;;;5153909;27;20098;-58
2023/01/06 01:51:54;;;;;;;15.40;4.13;;;10.10;99.90;;;;;;5142351;27;20098;-58
2023/01/06 01:54:28;;;;;;;14.45;4.43;;;10.00;99.90;;;;;;5147297;27;20047;-58
2023/01/06 01:56:58;;;;;;;14.10;4.25;;;10.00;99.90;;;;;;5139740;27;20058;-57
2023/01/06 01:59:28;;;;;;;12.90;4.18;;;10.00;99.90;;;;;;5150963;27;20038;-57
2023/01/06 02:01:54;;;;;;;13.82;4.55;;;10.10;99.90;;;;;;5159709;27;20600;-57
2023/01/06 02:04:21;;;;;;;14.07;4.68;;;10.20;99.90;;;;;;5132568;27;20043;-57
2023/01/06 02:06:49;;;;;;;16.35;5.22;;;10.20;99.90;;;;;;5148747;27;20074;-58
2023/01/06 02:09:28;;;;;;;15.35;4.88;;;10.20;99.90;;;;;;5152575;27;20035;-58
2023/01/06 02:11:56;;;;;;;16.60;6.32;;;10.00;99.90;;;;;;5149358;27;20031;-58
2023/01/06 02:14:25;;;;;;;16.08;5.18;;;10.00;99.90;;;;;;5159678;27;20517;-58
2023/01/06 02:16:57;;;;;;;16.08;4.85;;;10.00;99.90;;;;;;5141226;27;20061;-58
2023/01/06 02:19:41;;;;;;;15.00;5.90;;;10.20;99.90;;;;;;5158774;27;20038;-58
2023/01/06 02:22:25;;;;;;;15.45;6.28;;;10.10;99.90;;;;;;5138682;27;20051;-57
2023/01/06 02:25:23;;;;;;;13.57;5.63;;;10.10;99.90;;;;;;5138717;27;20049;-59
2023/01/06 02:28:36;;;;;;;17.83;5.78;;;10.20;99.90;;;;;;5137979;27;20050;-58
2023/01/06 02:31:10;;;;;;;13.25;5.40;;;10.10;99.90;;;;;;5138969;27;20050;-58
2023/01/06 02:33:53;;;;;;;17.50;5.88;;;10.00;99.90;;;;;;5146347;27;20058;-57
2023/01/06 02:36:28;;;;;;;14.02;5.20;;;10.10;99.90;;;;;;5128440;27;20039;-58
2023/01/06 02:39:13;;;;;;;13.55;5.22;;;10.10;99.90;;;;;;5139016;27;20047;-58
2023/01/06 02:41:49;;;;;;;15.13;6.10;;;10.10;99.90;;;;;;5138100;27;20042;-58
2023/01/06 02:44:40;;;;;;;13.00;5.22;;;10.00;99.90;;;;;;5120445;28;20072;-57
2023/01/06 02:47:23;;;;;;;17.67;5.43;;;10.10;99.90;;;;;;5138947;28;20122;-58
2023/01/06 02:50:02;;;;;;;16.17;4.85;;;10.00;99.90;;;;;;5139840;27;20154;-58
2023/01/06 02:52:45;;;;;;;13.82;4.55;;;10.00;99.90;;;;;;5151585;27;20089;-58
2023/01/06 02:55:21;;;;;;;13.43;4.45;;;10.10;99.90;;;;;;5152314;27;20031;-58
2023/01/06 02:58:09;;;;;;;16.15;4.07;;;10.10;99.90;;;;;;5151348;27;20101;-58
2023/01/06 03:00:58;;;;;;;10.75;4.07;;;10.10;99.90;;;;;;5124167;27;20051;-57
2023/01/06 03:03:28;;;;;;;13.82;3.78;;;10.10;99.90;;;;;;5142387;27;20038;-57
2023/01/06 03:06:03;;;;;;;13.18;3.75;;;10.00;99.90;;;;;;5142142;27;20539;-58
2023/01/06 03:08:31;;;;;;;11.85;3.83;;;10.00;99.90;;;;;;5142936;27;20035;-58
2023/01/06 03:10:59;;;;;;;10.82;3.30;;;10.10;99.90;;;;;;5141899;27;20074;-58
2023/01/06 03:13:49;;;;;;;8.88;3.13;;;9.90;99.90;;;;;;5142549;27;20051;-58
2023/01/06 03:16:15;;;;;;;12.38;4.90;;;10.00;99.90;;;;;;5142107;27;20043;-58
2023/01/06 03:18:44;;;;;;;17.83;3.63;;;10.00;99.90;;;;;;5142191;27;20643;-58
2023/01/06 03:21:24;;;;;;;10.20;3.50;;;10.00;99.90;;;;;;5142452;27;20062;-57
2023/01/06 03:23:50;;;;;;;11.07;3.70;;;10.00;99.90;;;;;;5141332;27;20040;-58
2023/01/06 03:26:16;;;;;;;9.35;4.07;;;10.10;99.90;;;;;;5141866;27;20062;-57
2023/01/06 03:28:42;;;;;;;7.88;3.78;;;10.10;99.90;;;;;;5141598;27;20035;-58
2023/01/06 03:31:40;;;;;;;16.15;5.50;;;10.10;99.90;;;;;;5142332;27;20154;-58
2023/01/06 03:34:45;;;;;;;9.15;4.47;;;10.10;99.90;;;;;;5142408;27;20051;-58
2023/01/06 03:37:32;;;;;;;13.85;4.65;;;10.00;99.90;;;;;;5141358;27;20047;-58
2023/01/06 03:40:10;;;;;;;10.88;4.72;;;10.10;99.90;;;;;;5123817;27;20451;-57
2023/01/06 03:46:12;;;;;;;11.27;5.03;;;10.00;99.90;;;;;;5152760;27;20043;-57
2023/01/06 03:48:41;;;;;;;13.60;4.50;;;9.90;99.90;;;;;;5162370;27;20050;-58
2023/01/06 03:51:34;;;;;;;10.98;4.82;;;10.00;99.90;;;;;;5162958;27;20121;-57
2023/01/06 03:54:19;;;;;;;8.60;4.60;;;10.10;99.90;;;;;;5160814;27;20043;-58
2023/01/06 03:56:50;;;;;;;10.23;4.82;;;10.10;99.90;;;;;;5141896;27;20046;-57
2023/01/06 03:59:22;;;;;;;9.52;5.10;;;10.00;99.90;;;;;;5141376;27;20110;-57
2023/01/06 04:01:49;;;;;;;10.55;5.70;;;10.10;99.90;;;;;;5156211;27;20083;-56
2023/01/06 04:04:16;;;;;;;11.85;5.97;;;10.00;99.90;;;;;;5160379;27;20031;-58
2023/01/06 04:06:42;;;;;;;11.88;5.78;;;10.10;99.90;;;;;;5151646;27;20035;-58
2023/01/06 04:09:08;;;;;;;11.93;6.50;;;10.20;99.90;;;;;;5149969;27;20496;-58
2023/01/06 04:14:18;;;;;;;10.82;6.47;;;10.00;99.90;;;;;;5141112;27;20700;-58
2023/01/06 04:16:43;;;;;;;11.82;6.35;;;10.00;99.90;;;;;;5141345;27;20043;-58
2023/01/06 04:19:09;;;;;;;11.25;6.40;;;10.00;99.90;;;;;;5122219;27;20043;-58
2023/01/06 04:21:34;;;;;;;9.48;6.15;;;10.00;99.90;;;;;;5146840;27;20042;-58
2023/01/06 04:24:00;;;;;;;10.80;6.60;;;10.00;99.90;;;;;;5129471;27;20081;-58
2023/01/06 04:26:26;;;;;;;13.05;6.60;;;9.90;99.90;;;;;;5122701;27;20090;-58
2023/01/06 04:28:51;;;;;;;13.20;7.07;;;10.10;99.90;;;;;;5140428;27;20047;-58
2023/01/06 04:31:17;;;;;;;11.63;6.57;;;10.00;99.90;;;;;;5140885;27;20043;-58
2023/01/06 04:33:43;;;;;;;13.05;6.65;;;10.10;99.90;;;;;;5122346;27;20077;-57
2023/01/06 04:36:09;;;;;;;12.75;6.50;;;10.00;99.90;;;;;;5140520;27;20082;-58
2023/01/06 04:38:34;;;;;;;12.02;6.05;;;10.00;99.90;;;;;;5141046;27;20103;-58
2023/01/06 04:41:00;;;;;;;11.02;5.70;;;10.00;99.90;;;;;;5121782;27;20083;-57
2023/01/06 04:43:26;;;;;;;11.50;6.68;;;10.00;99.90;;;;;;5140684;27;20050;-58
2023/01/06 04:45:51;;;;;;;12.18;5.07;;;10.00;99.90;;;;;;5141532;27;20109;-58
2023/01/06 04:48:17;;;;;;;9.10;4.60;;;10.00;99.90;;;;;;5150127;27;20039;-57
2023/01/06 04:50:43;;;;;;;8.98;4.45;;;10.10;99.90;;;;;;5133332;27;20035;-57
2023/01/06 04:53:11;;;;;;;7.72;3.78;;;10.10;99.90;;;;;;5160996;27;20439;-58
2023/01/06 04:55:37;;;;;;;8.30;4.38;;;10.10;99.90;;;;;;5146711;27;20039;-58
2023/01/06 04:58:04;;;;;;;7.95;3.80;;;10.10;99.90;;;;;;5139766;27;20070;-57
2023/01/06 05:00:29;;;;;;;7.82;4.00;;;10.10;99.90;;;;;;5140571;27;20099;-58
2023/01/06 05:02:55;;;;;;;9.38;3.60;;;10.10;99.90;;;;;;5139940;27;20047;-58
2023/01/06 05:05:20;;;;;;;8.27;4.00;;;10.10;99.90;;;;;;5140569;27;20043;-58
2023/01/06 05:07:46;;;;;;;6.43;3.00;;;10.10;99.90;;;;;;5142838;27;20306;-58
2023/01/06 05:10:12;;;;;;;6.95;3.08;;;10.20;99.90;;;;;;5148985;27;20058;-58
2023/01/06 05:12:37;;;;;;;6.95;3.22;;;10.20;99.90;;;;;;5133147;27;20039;-57
2023/01/06 05:15:04;;;;;;;10.52;3.13;;;10.20;99.90;;;;;;5132118;27;20560;-58
2023/01/06 05:17:29;;;;;;;9.63;3.33;;;10.20;99.90;;;;;;5139359;27;20453;-57
2023/01/06 05:19:55;;;;;;;8.43;3.50;;;10.20;99.90;;;;;;5139236;27;20035;-58
2023/01/06 05:22:21;;;;;;;6.22;3.45;;;10.20;99.90;;;;;;5123823;27;20538;-58
2023/01/06 05:24:46;;;;;;;6.53;3.30;;;10.20;99.90;;;;;;5139107;27;20042;-58
2023/01/06 05:27:12;;;;;;;7.55;3.78;;;10.10;99.90;;;;;;5160644;27;20059;-58
2023/01/06 05:29:38;;;;;;;7.40;3.88;;;10.20;99.90;;;;;;5160727;27;20043;-57
2023/01/06 05:32:04;;;;;;;9.90;3.78;;;10.20;99.90;;;;;;5141795;27;20668;-58
2023/01/06 05:34:30;;;;;;;8.57;3.97;;;10.20;99.90;;;;;;5160878;27;20146;-57
2023/01/06 05:36:56;;;;;;;10.13;4.95;;;10.10;99.90;;;;;;5141331;27;20042;-58
2023/01/06 05:39:22;;;;;;;9.02;4.00;;;10.10;99.90;;;;;;5160550;27;20035;-58
2023/01/06 05:41:49;;;;;;;6.95;3.90;;;10.10;99.90;;;;;;5159803;27;20121;-58
2023/01/06 05:44:14;;;;;;;11.02;4.70;;;10.00;99.90;;;;;;5160339;27;20045;-58
2023/01/06 05:46:40;;;;;;;12.20;5.32;;;10.00;99.90;;;;;;5141591;27;20102;-58
2023/01/06 05:49:06;;;;;;;10.23;4.80;;;9.90;99.90;;;;;;5140997;27;20039;-57
2023/01/06 05:51:31;;;;;;;10.35;4.65;;;10.00;99.90;;;;;;5160394;27;20035;-57
2023/01/06 05:53:57;;;;;;;9.05;5.03;;;9.80;99.90;;;;;;5158830;27;20041;-58
2023/01/06 05:56:23;;;;;;;10.77;6.00;;;9.80;99.90;;;;;;5139407;27;20051;-58
2023/01/06 05:58:50;;;;;;;11.10;6.05;;;9.60;99.90;;;;;;5122632;27;20070;-58
2023/01/06 06:01:28;;;;;;;10.75;6.88;;;9.70;99.90;;;;;;5147897;27;20043;-58
2023/01/06 06:03:54;;;;;;;10.68;6.93;;;9.70;99.90;;;;;;5151348;27;20035;-58
2023/01/06 06:06:22;;;;;;;11.95;8.05;;;9.50;99.90;;;;;;5147590;27;20039;-59
2023/01/06 06:08:48;;;;;;;14.02;8.75;;;9.50;99.90;;;;;;5139263;27;20047;-60
2023/01/06 06:11:16;;;;;;;12.10;8.55;;;9.40;99.90;;;;;;5149230;27;20045;-59
2023/01/06 06:13:55;;;;;;;12.82;9.27;;;9.70;99.90;;;;;;5150293;27;20074;-59
2023/01/06 06:16:24;;;;;;;12.85;9.63;;;9.50;99.90;;;;;;5138863;27;20039;-59
2023/01/06 06:18:51;;;;;;;11.73;9.18;;;9.40;99.90;;;;;;5120131;27;20072;-59
2023/01/06 06:21:20;;;;;;;15.18;10.60;;;9.40;99.90;;;;;;5139170;27;20147;-59
2023/01/06 06:23:46;;;;;;;12.05;9.48;;;9.40;99.90;;;;;;5148938;27;20092;-58
2023/01/06 06:26:12;;;;;;;14.23;10.25;;;9.40;99.90;;;;;;5148411;27;20062;-59
2023/01/06 06:28:38;;;;;;;15.20;10.88;;;9.60;99.90;;;;;;5159012;27;20035;-59
2023/01/06 06:31:17;;;;;;;15.02;10.32;;;9.30;99.90;;;;;;5136858;27;20042;-59
2023/01/06 06:33:43;;;;;;;17.58;10.38;;;9.40;99.90;;;;;;5145819;27;20089;-59
2023/01/06 06:36:15;;;;;;;13.77;9.98;;;9.70;99.90;;;;;;5143231;27;20688;-59
2023/01/06 06:38:42;;;;;;;16.30;10.23;;;9.50;99.90;;;;;;5146572;27;20523;-59
2023/01/06 06:41:08;;;;;;;14.88;10.07;;;9.40;99.90;;;;;;5154929;27;20098;-59
2023/01/06 06:43:34;;;;;;;13.43;9.95;;;9.70;99.90;;;;;;5149271;27;20050;-59
2023/01/06 06:46:00;;;;;;;12.90;10.52;;;9.80;99.90;;;;;;5154525;27;20641;-60
2023/01/06 06:48:28;;;;;;;12.70;9.93;;;9.50;99.90;;;;;;5155476;27;20035;-59
2023/01/06 06:51:01;;;;;;;13.20;9.68;;;9.50;99.90;;;;;;5152093;27;20039;-59
2023/01/06 06:53:27;;;;;;;13.30;9.45;;;9.70;99.90;;;;;;5144311;27;20074;-59
2023/01/06 06:55:54;;;;;;;14.30;9.35;;;9.60;99.90;;;;;;5146718;27;20042;-61
2023/01/06 06:58:20;;;;;;;11.73;8.57;;;9.40;99.90;;;;;;5154379;27;20060;-60
2023/01/06 07:00:45;;;;;;;11.40;8.07;;;9.60;99.90;;;;;;5155267;27;20026;-59
2023/01/06 07:03:11;;;;;;;12.02;8.48;;;9.70;99.90;;;;;;5154789;27;20039;-60
2023/01/06 07:05:37;;;;;;;13.90;7.43;;;9.50;99.90;;;;;;5155198;27;20529;-61
2023/01/06 07:08:03;;;;;;;12.02;7.45;;;9.70;99.90;;;;;;5127071;27;20427;-61
2023/01/06 07:10:29;;;;;;;12.95;7.75;;;9.50;99.90;;;;;;5143330;27;20047;-61
2023/01/06 07:12:54;;;;;;;10.60;6.25;;;9.20;99.90;;;;;;5117005;28;20043;-61
2023/01/06 07:15:20;;;;;;;9.57;6.72;;;9.60;99.90;;;;;;5133654;28;20042;-60
2023/01/06 07:17:46;;;;;;;9.30;5.95;;;9.80;99.90;;;;;;5134549;28;20053;-60
2023/01/06 07:20:11;;;;;;;10.00;5.78;;;9.80;99.90;;;;;;5133770;28;20039;-59
2023/01/06 07:22:38;;;;;;;9.88;5.53;;;9.90;99.90;;;;;;5148287;27;20042;-59
2023/01/06 07:25:06;;;;;;;9.18;5.25;;;9.80;99.90;;;;;;5136419;27;20042;-58
2023/01/06 07:27:32;;;;;;;9.88;5.07;;;9.90;99.90;;;;;;5154689;27;20525;-59
2023/01/06 07:29:57;;;;;;;8.75;4.30;;;9.60;99.90;;;;;;5140567;27;20062;-59
2023/01/06 07:32:23;;;;;;;7.60;3.88;;;9.70;99.90;;;;;;5133853;28;20043;-59
2023/01/06 07:34:49;;;;;;;7.93;3.20;;;9.60;99.90;;;;;;5134176;28;20043;-58
2023/01/06 07:37:14;;;;;;;8.82;3.00;;;9.70;99.90;;;;;;5133598;28;20047;-58
2023/01/06 07:39:40;;;;;;;7.25;2.95;;;9.50;99.90;;;;;;5117482;27;20091;-58
2023/01/06 07:42:09;;;;;;;9.95;2.47;;;9.40;99.90;;;;;;5138087;27;20043;-58
2023/01/06 07:44:35;;;;;;;6.65;2.40;;;9.40;99.90;;;;;;5118704;27;20189;-59
2023/01/06 07:47:01;;;;;;;6.88;1.90;;;9.40;99.90;;;;;;5138558;27;20074;-59
2023/01/06 07:49:27;;;;;;;10.02;2.03;;;9.20;99.90;;;;;;5137422;27;20150;-59
2023/01/06 07:51:52;;;;;;;7.78;2.63;;;9.30;99.90;;;;;;5102615;27;20115;-58
2023/01/06 07:54:18;;;;;;;5.78;1.13;;;9.10;99.90;;;;;;5137436;27;20099;-58
2023/01/06 07:56:44;;;;;;;5.35;1.08;;;8.90;99.90;;;;;;5137756;27;20088;-57
2023/01/06 07:59:09;;;;;;;7.05;1.38;;;8.80;99.90;;;;;;5137656;27;20081;-58
2023/01/06 08:01:35;;;;;;;8.73;1.38;;;8.80;99.90;;;;;;5118671;27;20046;-58
2023/01/06 08:04:01;;;;;;;5.63;1.00;;;8.70;99.90;;;;;;5138125;27;20195;-58
2023/01/06 08:06:27;;;;;;;7.72;0.90;;;8.50;99.90;;;;;;5137174;27;20038;-58
2023/01/06 08:08:53;;;;;;;6.20;1.13;;;8.50;99.90;;;;;;5137534;27;20039;-58
2023/01/06 08:11:19;;;;;;;5.25;0.82;;;8.40;99.90;;;;;;5141023;27;20082;-58
2023/01/06 08:13:44;;;;;;;5.93;0.90;;;8.30;99.90;;;;;;5146541;27;20035;-58
2023/01/06 08:16:11;;;;;;;2.88;0.90;;;8.10;99.90;;;;;;5145331;27;20067;-58
2023/01/06 08:18:37;;;;;;;4.15;0.85;;;8.00;99.90;;;;;;5137121;27;20063;-59
2023/01/06 08:21:06;;;;;;;5.53;0.90;;;8.00;99.90;;;;;;5137242;27;20043;-58
2023/01/06 08:23:32;;;;;;;7.50;1.00;;;8.00;99.90;;;;;;5136146;27;20043;-57
2023/01/06 08:26:03;;;;;;;6.78;1.48;;;7.90;99.90;;;;;;5137270;27;20035;-57
2023/01/06 08:28:28;;;;;;;4.93;0.90;;;7.90;99.90;;;;;;5136906;27;20039;-58
2023/01/06 08:30:54;;;;;;;5.13;0.90;;;7.80;99.90;;;;;;5118545;27;20035;-57
2023/01/06 08:33:22;;;;;;;5.63;0.80;;;7.70;99.90;;;;;;5136171;27;20570;-57
2023/01/06 08:35:48;;;;;;;6.57;1.10;;;7.70;99.90;;;;;;5117855;27;20047;-58
2023/01/06 08:38:14;;;;;;;3.42;0.90;;;7.70;99.90;;;;;;5137066;27;20050;-57
2023/01/06 08:40:40;;;;;;;5.25;0.90;;;7.70;99.90;;;;;;5136106;27;20176;-57
2023/01/06 08:43:06;;;;;;;6.43;0.82;;;7.70;99.90;;;;;;5137138;27;20046;-57
2023/01/06 08:45:31;;;;;;;7.68;1.00;;;7.70;99.90;;;;;;5136010;27;20858;-57
2023/01/06 08:47:57;;;;;;;4.00;1.05;;;7.60;99.90;;;;;;5118452;27;20043;-57
2023/01/06 08:50:23;;;;;;;9.30;1.00;;;7.70;99.90;;;;;;5100403;27;20074;-57
2023/01/06 08:52:48;;;;;;;5.63;0.93;;;7.60;99.90;;;;;;5136201;27;20100;-56
2023/01/06 08:55:14;;;;;;;5.10;0.88;;;7.70;99.90;;;;;;5148293;27;20054;-56
2023/01/06 08:57:40;;;;;;;8.98;1.00;;;7.70;99.90;;;;;;5138037;27;20050;-57
2023/01/06 09:00:06;;;;;;;8.93;1.20;;;7.80;99.90;;;;;;5157242;27;20119;-57
2023/01/06 09:02:32;;;;;;;9.07;1.42;;;7.80;99.90;;;;;;5135709;27;20402;-57
2023/01/06 09:04:58;;;;;;;8.10;2.17;;;7.80;99.90;;;;;;5150967;27;20046;-57
2023/01/06 09:07:23;;;;;;;14.07;1.70;;;7.70;99.90;;;;;;5147926;27;20046;-56
2023/01/06 09:09:49;;;;;;;6.70;1.10;;;7.80;99.90;;;;;;5135993;27;20194;-57
2023/01/06 09:12:15;;;;;;;11.68;1.80;;;7.90;99.90;;;;;;5136243;27;20039;-57
2023/01/06 09:14:40;;;;;;;10.10;1.40;;;7.80;99.90;;;;;;5117053;27;20133;-56
2023/01/06 09:17:06;;;;;;;11.50;1.52;;;7.80;99.90;;;;;;5145667;27;20052;-57
2023/01/06 09:19:32;;;;;;;8.20;1.58;;;7.80;99.90;;;;;;5156623;27;20043;-57
2023/01/06 09:21:57;;;;;;;14.60;2.10;;;7.80;99.90;;;;;;5156475;27;20106;-57
2023/01/06 09:24:23;;;;;;;11.20;1.98;;;8.00;99.90;;;;;;5137591;27;20094;-56
2023/01/06 09:26:49;;;;;;;12.82;2.35;;;8.00;99.90;;;;;;5156470;27;20079;-56
2023/01/06 09:29:14;;;;;;;10.57;1.58;;;7.90;99.90;;;;;;5156265;27;20054;-56
2023/01/06 09:31:40;;;;;;;9.18;1.55;;;8.10;99.90;;;;;;5156860;27;20077;-57
2023/01/06 09:34:06;;;;;;;10.75;1.45;;;8.00;99.90;;;;;;5156436;27;20046;-57
2023/01/06 09:36:33;;;;;;;9.63;1.38;;;8.00;99.90;;;;;;5155796;27;20054;-58
2023/01/06 09:38:59;;;;;;;9.45;1.67;;;8.20;99.90;;;;;;5157764;27;20047;-59
2023/01/06 09:41:53;;;;;;;13.18;1.65;;;8.10;99.90;;;;;;5159155;27;20035;-56
2023/01/06 09:44:29;;;;;;;8.90;1.50;;;8.20;99.90;;;;;;5159841;27;20070;-56
2023/01/06 09:46:57;;;;;;;8.00;1.55;;;8.40;99.90;;;;;;5160725;27;20043;-57
2023/01/06 09:49:26;;;;;;;17.45;3.13;;;8.40;99.90;;;;;;5159322;27;20035;-57
2023/01/06 09:52:03;;;;;;;11.23;1.58;;;8.40;99.90;;;;;;5159943;27;20136;-57
2023/01/06 09:54:46;;;;;;;10.75;1.30;;;8.40;99.90;;;;;;5154636;27;20046;-56
2023/01/06 09:57:16;;;;;;;12.98;1.40;;;8.50;99.90;;;;;;5139209;27;20027;-58
2023/01/06 09:59:47;;;;;;;8.65;1.48;;;8.50;99.90;;;;;;5139619;27;20035;-56
2023/01/06 10:02:21;;;;;;;12.90;1.67;;;8.40;99.90;;;;;;5138128;27;20047;-57
2023/01/06 10:04:47;;;;;;;11.70;1.50;;;8.30;99.90;;;;;;5138889;27;20045;-58
2023/01/06 10:07:25;;;;;;;9.35;1.50;;;8.50;99.90;;;;;;5139360;27;20039;-58
2023/01/06 10:10:06;;;;;;;11.18;2.10;;;8.50;99.90;;;;;;5121206;27;20043;-58
2023/01/06 10:12:50;;;;;;;15.88;2.17;;;8.40;99.90;;;;;;5120885;27;20043;-57
2023/01/06 10:15:44;;;;;;;9.73;1.45;;;8.40;99.90;;;;;;5138501;27;20055;-58
2023/01/06 10:18:22;;;;;;;15.55;2.00;;;8.50;99.90;;;;;;5120777;27;20665;-58
2023/01/06 10:21:03;;;;;;;11.18;1.52;;;8.60;99.90;;;;;;5138490;27;20074;-57
2023/01/06 10:23:54;;;;;;;13.80;1.83;;;8.50;99.90;;;;;;5137974;27;20098;-57
2023/01/06 10:26:29;;;;;;;9.35;1.35;;;8.50;99.90;;;;;;5139262;27;20057;-57
2023/01/06 10:29:01;;;;;;;11.30;1.55;;;8.50;99.90;;;;;;5138567;27;20047;-57
2023/01/06 10:31:33;;;;;;;13.27;1.95;;;8.70;99.90;;;;;;5138886;27;20035;-58
2023/01/06 10:33:59;;;;;;;;;;;8.80;99.90;;;;;;5139324;27;20071;-58
2023/01/06 10:36:41;;;;;;;9.50;1.55;;;8.80;99.90;;;;;;5138107;27;19924;-59
2023/01/06 10:39:15;;;;;;;6.17;1.60;;;8.80;99.90;;;;;;5138958;27;20047;-58
2023/01/06 10:44:47;;;;;;;10.57;1.70;;;8.80;99.90;;;;;;5137921;28;20081;-57
2023/01/06 10:47:26;;;;;;;10.27;1.52;;;8.80;99.90;;;;;;5138890;28;20047;-57
2023/01/06 10:49:52;;;;;;;10.32;1.92;;;8.80;99.90;;;;;;5138011;28;20076;-58
2023/01/06 10:52:20;;;;;;;9.68;1.33;;;8.90;99.90;;;;;;5133743;27;20039;-56
2023/01/06 10:54:46;;;;;;;11.88;1.80;;;9.10;99.90;;;;;;5109571;27;21142;-56
2023/01/06 10:57:28;;;;;;;8.90;1.40;;;9.00;99.90;;;;;;5109173;27;20087;-57
2023/01/06 11:00:12;;;;;;;11.05;1.45;;;9.00;99.90;;;;;;5128672;27;20135;-56
2023/01/06 11:02:53;;;;;;;12.90;1.75;;;9.00;99.90;;;;;;5138220;27;20066;-57
2023/01/06 11:05:28;;;;;;;15.55;1.58;;;9.00;99.90;;;;;;5138421;28;20257;-58
2023/01/06 11:08:06;;;;;;;16.75;1.65;;;9.10;99.90;;;;;;5138538;28;20046;-57
2023/01/06 11:10:52;;;;;;;11.50;1.50;;;9.20;99.90;;;;;;5137549;28;20051;-56
2023/01/06 11:13:36;;;;;;;10.55;1.65;;;9.20;99.90;;;;;;5138204;27;20035;-57
2023/01/06 11:16:28;;;;;;;13.82;1.60;;;9.30;99.90;;;;;;5141646;27;20043;-57
2023/01/06 11:18:59;;;;;;;15.73;1.70;;;9.30;99.90;;;;;;5141855;27;20042;-57
2023/01/06 11:21:39;;;;;;;12.50;1.38;;;9.30;99.90;;;;;;5141626;27;20494;-58
2023/01/06 11:24:25;;;;;;;9.93;1.65;;;9.30;99.90;;;;;;5141745;27;20055;-57
2023/01/06 11:26:54;;;;;;;14.65;3.40;;;9.30;99.90;;;;;;5142230;27;20059;-57
2023/01/06 11:29:25;;;;;;;12.40;2.00;;;9.30;99.90;;;;;;5123709;27;20435;-57
2023/01/06 11:31:51;;;;;;;8.85;1.40;;;9.40;99.90;;;;;;5141843;27;20046;-58
2023/01/06 11:34:23;;;;;;;7.47;1.60;;;9.40;99.90;;;;;;5142192;27;20049;-54
2023/01/06 11:36:49;;;;;;;13.38;2.22;;;9.50;99.90;;;;;;5141827;27;20050;-57
2023/01/06 11:39:33;;;;;;;9.73;1.90;;;9.40;99.90;;;;;;5142200;27;20079;-56
2023/01/06 11:42:17;;;;;;;12.32;2.17;;;9.40;99.90;;;;;;5141872;27;20051;-57
2023/01/06 11:44:43;;;;;;;12.23;2.42;;;9.40;99.90;;;;;;5141392;27;20054;-57
2023/01/06 11:47:17;;;;;;;11.68;1.50;;;9.40;99.90;;;;;;5142236;27;20050;-57
2023/01/06 11:49:53;;;;;;;11.35;1.58;;;9.40;99.90;;;;;;5122864;27;20055;-57
2023/01/06 11:52:30;;;;;;;10.48;2.47;;;9.40;99.90;;;;;;5142185;27;20067;-56
2023/01/06 11:55:07;;;;;;;14.52;1.90;;;9.50;99.90;;;;;;5141705;27;20050;-57
2023/01/06 11:57:48;;;;;;;12.90;2.15;;;9.40;99.90;;;;;;5141247;27;20054;-54
2023/01/06 12:00:25;;;;;;;12.30;1.70;;;9.40;99.90;;;;;;5141768;27;20050;-57
2023/01/06 12:03:19;;;;;;;11.13;1.80;;;9.40;99.90;;;;;;5141223;27;20069;-57
2023/01/06 12:06:03;;;;;;;11.00;1.30;;;9.40;99.90;;;;;;5141370;27;20532;-57
2023/01/06 12:09:08;;;;;;;13.93;2.00;;;9.40;99.90;;;;;;5140762;27;20043;-57
2023/01/06 12:11:42;;;;;;;8.95;1.92;;;9.50;99.90;;;;;;5140726;27;20043;-56
2023/01/06 12:14:35;;;;;;;10.57;1.77;;;9.40;99.90;;;;;;5141066;27;20110;-57
2023/01/06 12:17:13;;;;;;;18.05;2.47;;;9.40;99.90;;;;;;5132689;27;20062;-56
2023/01/06 12:19:57;;;;;;;10.02;1.80;;;9.40;99.90;;;;;;5159886;27;20042;-56
2023/01/06 12:22:42;;;;;;;11.35;1.85;;;9.40;99.90;;;;;;5161635;27;20047;-56
2023/01/06 12:25:32;;;;;;;11.93;1.73;;;9.40;99.90;;;;;;5150050;27;20039;-56
2023/01/06 12:28:15;;;;;;;11.18;1.88;;;9.30;99.90;;;;;;5149901;27;20054;-57
2023/01/06 12:31:16;;;;;;;8.77;2.05;;;9.40;99.90;;;;;;5154101;27;20521;-58
2023/01/06 12:33:58;;;;;;;12.85;1.70;;;9.40;99.90;;;;;;5161973;27;20489;-57
2023/01/06 12:36:39;;;;;;;11.13;1.80;;;9.40;99.90;;;;;;5160871;27;20102;-56
2023/01/06 12:39:29;;;;;;;9.43;1.70;;;9.40;99.90;;;;;;5161548;27;20050;-57
2023/01/06 12:42:47;;;;;;;10.60;1.85;;;9.30;99.90;;;;;;5140447;27;20568;-57
2023/01/06 12:45:27;;;;;;;10.95;1.63;;;9.30;99.90;;;;;;5105087;27;20043;-58
2023/01/06 12:47:56;;;;;;;12.60;1.85;;;9.30;99.90;;;;;;5140901;27;20555;-57
2023/01/06 12:50:37;;;;;;;10.68;1.73;;;9.20;99.90;;;;;;5140423;27;20043;-56
2023/01/06 12:53:08;;;;;;;9.80;1.77;;;9.20;99.90;;;;;;5146458;27;20087;-57
2023/01/06 12:55:48;;;;;;;13.23;2.15;;;9.30;99.90;;;;;;5150072;27;20369;-58
2023/01/06 12:58:41;;;;;;;14.23;2.20;;;9.30;99.90;;;;;;5138878;27;20044;-57
2023/01/06 13:01:40;;;;;;;13.00;1.60;;;9.30;99.90;;;;;;5140664;27;20047;-57
2023/01/06 13:04:47;;;;;;;9.63;1.58;;;9.40;99.90;;;;;;5136616;27;20051;-57
2023/01/06 13:07:31;;;;;;;15.52;2.67;;;9.40;99.90;;;;;;5139629;27;20047;-57
2023/01/06 13:10:14;;;;;;;12.90;1.58;;;9.30;99.90;;;;;;5145515;27;20031;-54
2023/01/06 13:13:06;;;;;;;14.57;1.95;;;9.30;99.90;;;;;;5160202;27;20042;-58
2023/01/06 13:15:34;;;;;;;10.40;2.07;;;9.20;99.90;;;;;;5111141;27;20088;-57
2023/01/06 13:18:04;;;;;;;16.50;2.53;;;9.10;99.90;;;;;;5161201;27;20050;-57